San Gennaro — IIOT2 — position and weather

sailwx.info

Track history (hours):
 
Tides and Currents Weather Stations Pressure Air Temp Water Temp Dewpoint Dewpoint Depression Visibility Wind Speed Wind Dir Waves Ship Positions

San Gennaro

Last reported at 2015-Mar-30 05:23 UTC. Time now 2015-Mar-30 05:50 UTC.
Position N 40°51' E 014°16'.

Length 27 m; draft 5.2 m.

Type: Tug. MMSI: 247295700.

Date/timePositionNaut miles runAvg speedWind from/ knotsBaromVisibWave heightAir tempDewpointWater temp
2015-Mar-30 05:23N 40°51' E 014°16'0 0.0
2015-Mar-30 04:14N 40°51' E 014°16'0 0.0
2015-Mar-30 02:07N 40°51' E 014°16'0 0.0
2015-Mar-29 17:26N 40°51' E 014°16'0 0.0
2015-Mar-29 16:21N 40°51' E 014°16'0 0.0
2015-Mar-29 14:28N 40°51' E 014°16'2 0.1
2015-Mar-28 07:33N 40°50' E 014°18'2 0.1
2015-Mar-27 07:24N 40°51' E 014°16'1 0.2
2015-Mar-27 01:33N 40°50' E 014°18'1 0.5
2015-Mar-27 00:33N 40°50' E 014°18'0 0.1
2015-Mar-26 23:33N 40°50' E 014°18'1 0.1
2015-Mar-26 11:30N 40°50' E 014°17'5 5.0
2015-Mar-26 10:33N 40°47' E 014°21'5 5.1
2015-Mar-26 09:33N 40°45' E 014°27'7 6.8
2015-Mar-26 08:30N 40°48' E 014°18'3 0.4
2015-Mar-26 00:15N 40°51' E 014°16'0 0.0
2015-Mar-25 13:13N 40°51' E 014°16'2 2.4
2015-Mar-25 12:29N 40°50' E 014°18'1 0.6
2015-Mar-25 11:32N 40°50' E 014°18'0 0.1
2015-Mar-25 07:29N 40°50' E 014°17'0 0.0
2015-Mar-24 20:33N 40°50' E 014°17'0 0.0
2015-Mar-23 20:31N 40°50' E 014°17'1 0.1
2015-Mar-23 13:03N 40°50' E 014°16'1 1.5
2015-Mar-23 12:32N 40°50' E 014°17'0 0.1
2015-Mar-23 11:32N 40°50' E 014°17'1 0.0
2015-Mar-22 07:03N 40°51' E 014°16'1 2.4
2015-Mar-22 06:30N 40°50' E 014°18'1 0.2
2015-Mar-22 02:33N 40°50' E 014°17'1 0.2
2015-Mar-21 22:21N 40°51' E 014°16'0 0.0
2015-Mar-21 16:15N 40°51' E 014°16'0 0.0
2015-Mar-21 13:23N 40°51' E 014°16'2 2.4
2015-Mar-21 12:33N 40°50' E 014°18'2 0.1
2015-Mar-20 22:32N 40°51' E 014°16'0 0.0
2015-Mar-20 21:18N 40°51' E 014°16'0 0.0
2015-Mar-20 19:33N 40°51' E 014°16'1 0.4
2015-Mar-20 17:33N 40°50' E 014°17'9 9.2
2015-Mar-20 16:32N 40°45' E 014°27'6 5.7
2015-Mar-20 15:26N 40°47' E 014°19'4 1.7
2015-Mar-20 13:07N 40°51' E 014°16'  
Track history (hours):
 
Tides and Currents Weather Stations Pressure Air Temp Water Temp Dewpoint Dewpoint Depression Visibility Wind Speed Wind Dir Waves Ship Positions

San Gennaro

Last reported at 2015-Mar-30 05:23 UTC. Time now 2015-Mar-30 05:50 UTC.
Position N 40°51' E 014°16'.

Length 27 m; draft 5.2 m.

Type: Tug. MMSI: 247295700.

Date/timePositionNaut miles runAvg speedWind from/ knotsBaromVisibWave heightAir tempDewpointWater temp
2015-Mar-30 05:23N 40°51' E 014°16'0 0.0
2015-Mar-30 04:14N 40°51' E 014°16'0 0.0
2015-Mar-30 02:07N 40°51' E 014°16'0 0.0
2015-Mar-29 17:26N 40°51' E 014°16'0 0.0
2015-Mar-29 16:21N 40°51' E 014°16'0 0.0
2015-Mar-29 14:28N 40°51' E 014°16'2 0.1
2015-Mar-28 07:33N 40°50' E 014°18'2 0.1
2015-Mar-27 07:24N 40°51' E 014°16'1 0.2
2015-Mar-27 01:33N 40°50' E 014°18'1 0.5
2015-Mar-27 00:33N 40°50' E 014°18'0 0.1
2015-Mar-26 23:33N 40°50' E 014°18'1 0.1
2015-Mar-26 11:30N 40°50' E 014°17'5 5.0
2015-Mar-26 10:33N 40°47' E 014°21'5 5.1
2015-Mar-26 09:33N 40°45' E 014°27'7 6.8
2015-Mar-26 08:30N 40°48' E 014°18'3 0.4
2015-Mar-26 00:15N 40°51' E 014°16'0 0.0
2015-Mar-25 13:13N 40°51' E 014°16'2 2.4
2015-Mar-25 12:29N 40°50' E 014°18'1 0.6
2015-Mar-25 11:32N 40°50' E 014°18'0 0.1
2015-Mar-25 07:29N 40°50' E 014°17'0 0.0
2015-Mar-24 20:33N 40°50' E 014°17'0 0.0
2015-Mar-23 20:31N 40°50' E 014°17'1 0.1
2015-Mar-23 13:03N 40°50' E 014°16'1 1.5
2015-Mar-23 12:32N 40°50' E 014°17'0 0.1
2015-Mar-23 11:32N 40°50' E 014°17'1 0.0
2015-Mar-22 07:03N 40°51' E 014°16'1 2.4
2015-Mar-22 06:30N 40°50' E 014°18'1 0.2
2015-Mar-22 02:33N 40°50' E 014°17'1 0.2
2015-Mar-21 22:21N 40°51' E 014°16'0 0.0
2015-Mar-21 16:15N 40°51' E 014°16'0 0.0
2015-Mar-21 13:23N 40°51' E 014°16'2 2.4
2015-Mar-21 12:33N 40°50' E 014°18'2 0.1
2015-Mar-20 22:32N 40°51' E 014°16'0 0.0
2015-Mar-20 21:18N 40°51' E 014°16'0 0.0
2015-Mar-20 19:33N 40°51' E 014°16'1 0.4
2015-Mar-20 17:33N 40°50' E 014°17'9 9.2
2015-Mar-20 16:32N 40°45' E 014°27'6 5.7
2015-Mar-20 15:26N 40°47' E 014°19'4 1.7
2015-Mar-20 13:07N 40°51' E 014°16'  

Dump ship's entire track history